sensor_id;sensor_type;location;lat;lon;timestamp;pressure;altitude;pressure_sealevel;temperature
45701;BMP280;36277;32.852;-116.998;2023-05-29T00:01:26;99921.34;;;23.57
45701;BMP280;36277;32.852;-116.998;2023-05-29T00:03:52;99917.78;;;23.63
45701;BMP280;36277;32.852;-116.998;2023-05-29T00:06:19;99916.31;;;23.81
45701;BMP280;36277;32.852;-116.998;2023-05-29T00:08:45;99920.66;;;23.90
45701;BMP280;36277;32.852;-116.998;2023-05-29T00:11:12;99922.84;;;24.01
45701;BMP280;36277;32.852;-116.998;2023-05-29T00:13:39;99911.25;;;23.85
45701;BMP280;36277;32.852;-116.998;2023-05-29T00:16:06;99901.06;;;23.64
45701;BMP280;36277;32.852;-116.998;2023-05-29T00:18:32;99907.34;;;23.58
45701;BMP280;36277;32.852;-116.998;2023-05-29T00:20:58;99901.44;;;23.61
45701;BMP280;36277;32.852;-116.998;2023-05-29T00:23:25;99896.06;;;23.74
45701;BMP280;36277;32.852;-116.998;2023-05-29T00:25:51;99899.44;;;23.91
45701;BMP280;36277;32.852;-116.998;2023-05-29T00:28:17;99888.72;;;24.02
45701;BMP280;36277;32.852;-116.998;2023-05-29T00:30:44;99893.06;;;24.11
45701;BMP280;36277;32.852;-116.998;2023-05-29T00:33:10;99900.56;;;24.23
45701;BMP280;36277;32.852;-116.998;2023-05-29T00:35:36;99893.41;;;24.29
45701;BMP280;36277;32.852;-116.998;2023-05-29T00:38:02;99898.34;;;24.33
45701;BMP280;36277;32.852;-116.998;2023-05-29T00:40:29;99899.44;;;24.39
45701;BMP280;36277;32.852;-116.998;2023-05-29T00:42:55;99893.59;;;24.48
45701;BMP280;36277;32.852;-116.998;2023-05-29T00:45:21;99901.47;;;24.51
45701;BMP280;36277;32.852;-116.998;2023-05-29T00:47:48;99900.84;;;24.56
45701;BMP280;36277;32.852;-116.998;2023-05-29T00:50:14;99897.47;;;24.60
45701;BMP280;36277;32.852;-116.998;2023-05-29T00:52:43;99885.84;;;24.65
45701;BMP280;36277;32.852;-116.998;2023-05-29T00:55:10;99885.22;;;24.69
45701;BMP280;36277;32.852;-116.998;2023-05-29T00:57:37;99885.88;;;24.71
45701;BMP280;36277;32.852;-116.998;2023-05-29T01:00:06;99881.84;;;24.74
45701;BMP280;36277;32.852;-116.998;2023-05-29T01:02:40;99877.63;;;24.78
45701;BMP280;36277;32.852;-116.998;2023-05-29T01:05:11;99877.63;;;24.78
45701;BMP280;36277;32.852;-116.998;2023-05-29T01:07:38;99864.47;;;24.80
45701;BMP280;36277;32.852;-116.998;2023-05-29T01:10:05;99858.94;;;24.80
45701;BMP280;36277;32.852;-116.998;2023-05-29T01:12:49;99860.69;;;24.87
45701;BMP280;36277;32.852;-116.998;2023-05-29T01:18:19;99866.84;;;24.89
45701;BMP280;36277;32.852;-116.998;2023-05-29T01:20:52;99868.13;;;24.87
45701;BMP280;36277;32.852;-116.998;2023-05-29T01:26:21;99862.22;;;24.96
45701;BMP280;36277;32.852;-116.998;2023-05-29T01:28:53;99867.09;;;24.94
45701;BMP280;36277;32.852;-116.998;2023-05-29T01:31:25;99866.69;;;24.97
45701;BMP280;36277;32.852;-116.998;2023-05-29T01:33:55;99866.06;;;25.02
45701;BMP280;36277;32.852;-116.998;2023-05-29T01:36:22;99876.03;;;25.03
45701;BMP280;36277;32.852;-116.998;2023-05-29T01:38:51;99867.34;;;25.06
45701;BMP280;36277;32.852;-116.998;2023-05-29T01:41:18;99865.00;;;25.03
45701;BMP280;36277;32.852;-116.998;2023-05-29T01:43:46;99863.75;;;25.05
45701;BMP280;36277;32.852;-116.998;2023-05-29T01:46:14;99864.59;;;25.06
45701;BMP280;36277;32.852;-116.998;2023-05-29T01:48:42;99858.00;;;25.07
45701;BMP280;36277;32.852;-116.998;2023-05-29T01:51:10;99862.06;;;25.11
45701;BMP280;36277;32.852;-116.998;2023-05-29T01:53:40;99857.00;;;25.14
45701;BMP280;36277;32.852;-116.998;2023-05-29T01:56:07;99854.91;;;25.16
45701;BMP280;36277;32.852;-116.998;2023-05-29T01:58:38;99852.59;;;25.20
45701;BMP280;36277;32.852;-116.998;2023-05-29T02:01:06;99854.28;;;25.21
45701;BMP280;36277;32.852;-116.998;2023-05-29T02:03:33;99846.00;;;25.21
45701;BMP280;36277;32.852;-116.998;2023-05-29T02:06:00;99852.19;;;25.23
45701;BMP280;36277;32.852;-116.998;2023-05-29T02:08:26;99855.78;;;25.23
45701;BMP280;36277;32.852;-116.998;2023-05-29T02:10:53;99853.66;;;25.25
45701;BMP280;36277;32.852;-116.998;2023-05-29T02:13:19;99859.19;;;25.25
45701;BMP280;36277;32.852;-116.998;2023-05-29T02:15:49;99861.72;;;25.27
45701;BMP280;36277;32.852;-116.998;2023-05-29T02:18:16;99862.38;;;25.28
45701;BMP280;36277;32.852;-116.998;2023-05-29T02:20:46;99856.84;;;25.28
45701;BMP280;36277;32.852;-116.998;2023-05-29T02:23:12;99857.72;;;25.29
45701;BMP280;36277;32.852;-116.998;2023-05-29T02:25:39;99864.94;;;25.30
45701;BMP280;36277;32.852;-116.998;2023-05-29T02:28:06;99866.66;;;25.31
45701;BMP280;36277;32.852;-116.998;2023-05-29T02:30:34;99864.72;;;25.31
45701;BMP280;36277;32.852;-116.998;2023-05-29T02:33:01;99871.13;;;25.32
45701;BMP280;36277;32.852;-116.998;2023-05-29T02:35:27;99876.41;;;25.33
45701;BMP280;36277;32.852;-116.998;2023-05-29T02:37:54;99874.72;;;25.32
45701;BMP280;36277;32.852;-116.998;2023-05-29T02:40:20;99871.53;;;25.35
45701;BMP280;36277;32.852;-116.998;2023-05-29T02:42:47;99873.66;;;25.33
45701;BMP280;36277;32.852;-116.998;2023-05-29T02:45:14;99875.59;;;25.33
45701;BMP280;36277;32.852;-116.998;2023-05-29T02:47:40;99888.13;;;25.35
45701;BMP280;36277;32.852;-116.998;2023-05-29T02:50:06;99883.44;;;25.36
45701;BMP280;36277;32.852;-116.998;2023-05-29T02:52:35;99895.28;;;25.24
45701;BMP280;36277;32.852;-116.998;2023-05-29T02:55:05;99895.13;;;24.98
45701;BMP280;36277;32.852;-116.998;2023-05-29T02:57:32;99892.00;;;24.67
45701;BMP280;36277;32.852;-116.998;2023-05-29T02:59:58;99897.94;;;24.64
45701;BMP280;36277;32.852;-116.998;2023-05-29T03:02:26;99896.47;;;24.68
45701;BMP280;36277;32.852;-116.998;2023-05-29T03:04:53;99901.81;;;24.76
45701;BMP280;36277;32.852;-116.998;2023-05-29T03:07:19;99906.75;;;24.80
45701;BMP280;36277;32.852;-116.998;2023-05-29T03:09:46;99909.97;;;24.90
45701;BMP280;36277;32.852;-116.998;2023-05-29T03:12:12;99904.50;;;24.97
45701;BMP280;36277;32.852;-116.998;2023-05-29T03:14:38;99914.06;;;25.01
45701;BMP280;36277;32.852;-116.998;2023-05-29T03:17:05;99919.16;;;25.04
45701;BMP280;36277;32.852;-116.998;2023-05-29T03:19:32;99910.69;;;25.05
45701;BMP280;36277;32.852;-116.998;2023-05-29T03:21:59;99912.19;;;25.08
45701;BMP280;36277;32.852;-116.998;2023-05-29T03:24:25;99915.59;;;25.10
45701;BMP280;36277;32.852;-116.998;2023-05-29T03:26:51;99925.38;;;25.12
45701;BMP280;36277;32.852;-116.998;2023-05-29T03:29:18;99926.41;;;25.05
45701;BMP280;36277;32.852;-116.998;2023-05-29T03:31:45;99932.31;;;25.02
45701;BMP280;36277;32.852;-116.998;2023-05-29T03:34:11;99936.56;;;24.98
45701;BMP280;36277;32.852;-116.998;2023-05-29T03:36:39;99935.09;;;25.02
45701;BMP280;36277;32.852;-116.998;2023-05-29T03:39:05;99933.59;;;24.99
45701;BMP280;36277;32.852;-116.998;2023-05-29T03:41:35;99936.16;;;25.01
45701;BMP280;36277;32.852;-116.998;2023-05-29T03:44:01;99935.50;;;24.99
45701;BMP280;36277;32.852;-116.998;2023-05-29T03:46:28;99938.25;;;24.99
45701;BMP280;36277;32.852;-116.998;2023-05-29T03:48:54;99949.94;;;25.01
45701;BMP280;36277;32.852;-116.998;2023-05-29T03:51:20;99949.28;;;24.99
45701;BMP280;36277;32.852;-116.998;2023-05-29T03:53:46;99957.41;;;25.00
45701;BMP280;36277;32.852;-116.998;2023-05-29T03:56:13;99955.41;;;24.88
45701;BMP280;36277;32.852;-116.998;2023-05-29T03:58:39;99958.28;;;24.73
45701;BMP280;36277;32.852;-116.998;2023-05-29T04:01:05;99953.28;;;24.56
45701;BMP280;36277;32.852;-116.998;2023-05-29T04:03:31;99965.06;;;24.22
45701;BMP280;36277;32.852;-116.998;2023-05-29T04:05:58;99960.72;;;24.13
45701;BMP280;36277;32.852;-116.998;2023-05-29T04:08:24;99970.78;;;24.21
45701;BMP280;36277;32.852;-116.998;2023-05-29T04:10:51;99963.41;;;24.28
45701;BMP280;36277;32.852;-116.998;2023-05-29T04:13:20;99972.38;;;24.36
45701;BMP280;36277;32.852;-116.998;2023-05-29T04:15:46;99974.97;;;24.38
45701;BMP280;36277;32.852;-116.998;2023-05-29T04:18:13;99976.56;;;24.05
45701;BMP280;36277;32.852;-116.998;2023-05-29T04:20:39;99985.03;;;23.68
45701;BMP280;36277;32.852;-116.998;2023-05-29T04:23:05;99982.63;;;23.44
45701;BMP280;36277;32.852;-116.998;2023-05-29T04:25:31;99976.78;;;23.18
45701;BMP280;36277;32.852;-116.998;2023-05-29T04:27:58;99979.22;;;23.42
45701;BMP280;36277;32.852;-116.998;2023-05-29T04:30:27;99983.06;;;23.62
45701;BMP280;36277;32.852;-116.998;2023-05-29T04:32:54;99993.03;;;23.78
45701;BMP280;36277;32.852;-116.998;2023-05-29T04:35:20;99998.22;;;23.87
45701;BMP280;36277;32.852;-116.998;2023-05-29T04:37:47;99995.78;;;23.99
45701;BMP280;36277;32.852;-116.998;2023-05-29T04:40:14;99997.47;;;23.79
45701;BMP280;36277;32.852;-116.998;2023-05-29T04:42:43;99986.69;;;23.48
45701;BMP280;36277;32.852;-116.998;2023-05-29T04:45:11;99997.34;;;23.37
45701;BMP280;36277;32.852;-116.998;2023-05-29T04:47:37;99995.91;;;23.41
45701;BMP280;36277;32.852;-116.998;2023-05-29T04:50:13;100003.69;;;23.52
45701;BMP280;36277;32.852;-116.998;2023-05-29T04:52:39;100001.69;;;23.60
45701;BMP280;36277;32.852;-116.998;2023-05-29T04:55:06;100010.47;;;23.70
45701;BMP280;36277;32.852;-116.998;2023-05-29T04:57:32;100006.59;;;23.79
45701;BMP280;36277;32.852;-116.998;2023-05-29T04:59:58;100008.19;;;23.88
45701;BMP280;36277;32.852;-116.998;2023-05-29T05:02:25;100007.41;;;23.94
45701;BMP280;36277;32.852;-116.998;2023-05-29T05:04:51;100007.47;;;24.01
45701;BMP280;36277;32.852;-116.998;2023-05-29T05:07:17;100013.25;;;24.06
45701;BMP280;36277;32.852;-116.998;2023-05-29T05:09:44;100015.41;;;24.10
45701;BMP280;36277;32.852;-116.998;2023-05-29T05:12:10;100013.97;;;24.14
45701;BMP280;36277;32.852;-116.998;2023-05-29T05:14:36;100011.50;;;24.19
45701;BMP280;36277;32.852;-116.998;2023-05-29T05:17:03;100008.31;;;24.22
45701;BMP280;36277;32.852;-116.998;2023-05-29T05:19:29;100010.69;;;24.25
45701;BMP280;36277;32.852;-116.998;2023-05-29T05:21:56;100014.09;;;24.27
45701;BMP280;36277;32.852;-116.998;2023-05-29T05:24:22;100013.69;;;24.30
45701;BMP280;36277;32.852;-116.998;2023-05-29T05:26:48;100010.56;;;24.33
45701;BMP280;36277;32.852;-116.998;2023-05-29T05:29:15;100012.91;;;24.36
45701;BMP280;36277;32.852;-116.998;2023-05-29T05:31:41;100001.69;;;24.37
45701;BMP280;36277;32.852;-116.998;2023-05-29T05:34:07;99998.53;;;24.19
45701;BMP280;36277;32.852;-116.998;2023-05-29T05:36:34;100008.31;;;24.22
45701;BMP280;36277;32.852;-116.998;2023-05-29T05:39:00;100005.75;;;24.20
45701;BMP280;36277;32.852;-116.998;2023-05-29T05:41:26;100005.56;;;24.22
45701;BMP280;36277;32.852;-116.998;2023-05-29T05:43:52;100005.09;;;24.18
45701;BMP280;36277;32.852;-116.998;2023-05-29T05:46:19;100013.00;;;24.21
45701;BMP280;36277;32.852;-116.998;2023-05-29T05:48:45;100015.16;;;24.26
45701;BMP280;36277;32.852;-116.998;2023-05-29T05:51:14;100017.13;;;24.32
45701;BMP280;36277;32.852;-116.998;2023-05-29T05:53:40;100018.84;;;24.33
45701;BMP280;36277;32.852;-116.998;2023-05-29T05:56:06;100022.03;;;24.36
45701;BMP280;36277;32.852;-116.998;2023-05-29T05:58:32;100020.81;;;24.39
45701;BMP280;36277;32.852;-116.998;2023-05-29T06:00:59;100017.00;;;24.40
45701;BMP280;36277;32.852;-116.998;2023-05-29T06:03:27;100016.59;;;24.43
45701;BMP280;36277;32.852;-116.998;2023-05-29T06:05:53;100013.63;;;24.44
45701;BMP280;36277;32.852;-116.998;2023-05-29T06:08:20;100020.69;;;24.47
45701;BMP280;36277;32.852;-116.998;2023-05-29T06:10:46;100015.81;;;24.49
45701;BMP280;36277;32.852;-116.998;2023-05-29T06:13:12;100017.53;;;24.50
45701;BMP280;36277;32.852;-116.998;2023-05-29T06:15:38;100024.75;;;24.51
45701;BMP280;36277;32.852;-116.998;2023-05-29T06:18:05;100015.41;;;24.52
45701;BMP280;36277;32.852;-116.998;2023-05-29T06:20:34;100021.59;;;24.54
45701;BMP280;36277;32.852;-116.998;2023-05-29T06:23:01;100025.72;;;24.43
45701;BMP280;36277;32.852;-116.998;2023-05-29T06:25:27;100028.69;;;24.42
45701;BMP280;36277;32.852;-116.998;2023-05-29T06:28:02;100024.41;;;24.39
45701;BMP280;36277;32.852;-116.998;2023-05-29T06:30:31;100022.03;;;24.36
45701;BMP280;36277;32.852;-116.998;2023-05-29T06:32:57;100022.91;;;24.37
45701;BMP280;36277;32.852;-116.998;2023-05-29T06:35:23;100024.63;;;24.38
45701;BMP280;36277;32.852;-116.998;2023-05-29T06:37:50;100028.03;;;24.40
45701;BMP280;36277;32.852;-116.998;2023-05-29T06:40:16;100024.66;;;24.44
45701;BMP280;36277;32.852;-116.998;2023-05-29T06:42:43;100020.84;;;24.45
45701;BMP280;36277;32.852;-116.998;2023-05-29T06:45:12;100019.63;;;24.48
45701;BMP280;36277;32.852;-116.998;2023-05-29T06:47:44;100019.22;;;24.51
45701;BMP280;36277;32.852;-116.998;2023-05-29T06:50:10;100023.03;;;24.50
45701;BMP280;36277;32.852;-116.998;2023-05-29T06:52:36;100014.59;;;24.51
45701;BMP280;36277;32.852;-116.998;2023-05-29T06:55:03;100013.31;;;24.54
45701;BMP280;36277;32.852;-116.998;2023-05-29T06:57:29;100014.19;;;24.54
45701;BMP280;36277;32.852;-116.998;2023-05-29T06:59:55;100008.47;;;24.56
45701;BMP280;36277;32.852;-116.998;2023-05-29T07:02:22;100010.16;;;24.57
45701;BMP280;36277;32.852;-116.998;2023-05-29T07:04:48;100007.41;;;24.57
45701;BMP280;36277;32.852;-116.998;2023-05-29T07:07:14;100010.81;;;24.59
45701;BMP280;36277;32.852;-116.998;2023-05-29T07:09:40;100020.16;;;24.58
45701;BMP280;36277;32.852;-116.998;2023-05-29T07:12:07;100006.09;;;24.53
45701;BMP280;36277;32.852;-116.998;2023-05-29T07:14:33;100003.56;;;24.51
45701;BMP280;36277;32.852;-116.998;2023-05-29T07:16:59;99997.56;;;24.48
45701;BMP280;36277;32.852;-116.998;2023-05-29T07:19:26;100001.38;;;24.47
45701;BMP280;36277;32.852;-116.998;2023-05-29T07:21:52;100001.53;;;24.45
45701;BMP280;36277;32.852;-116.998;2023-05-29T07:24:18;99992.16;;;24.40
45701;BMP280;36277;32.852;-116.998;2023-05-29T07:26:44;100002.59;;;24.44
45701;BMP280;36277;32.852;-116.998;2023-05-29T07:29:11;99996.91;;;24.46
45701;BMP280;36277;32.852;-116.998;2023-05-29T07:31:38;99997.56;;;24.48
45701;BMP280;36277;32.852;-116.998;2023-05-29T07:34:06;99999.25;;;24.49
45701;BMP280;36277;32.852;-116.998;2023-05-29T07:36:32;99998.03;;;24.51
45701;BMP280;36277;32.852;-116.998;2023-05-29T07:38:58;99994.22;;;24.52
45701;BMP280;36277;32.852;-116.998;2023-05-29T07:41:25;99999.53;;;24.54
45701;BMP280;36277;32.852;-116.998;2023-05-29T07:43:54;100001.22;;;24.55
45701;BMP280;36277;32.852;-116.998;2023-05-29T07:46:21;100008.47;;;24.56
45701;BMP280;36277;32.852;-116.998;2023-05-29T07:48:47;100002.94;;;24.56
45701;BMP280;36277;32.852;-116.998;2023-05-29T07:51:14;99996.38;;;24.57
45701;BMP280;36277;32.852;-116.998;2023-05-29T07:53:40;99996.38;;;24.57
45701;BMP280;36277;32.852;-116.998;2023-05-29T07:56:06;99991.50;;;24.59
45701;BMP280;36277;32.852;-116.998;2023-05-29T07:58:35;99988.75;;;24.59
45701;BMP280;36277;32.852;-116.998;2023-05-29T08:01:02;99984.06;;;24.59
45701;BMP280;36277;32.852;-116.998;2023-05-29T08:03:28;99993.22;;;24.60
45701;BMP280;36277;32.852;-116.998;2023-05-29T08:05:55;99985.78;;;24.60
45701;BMP280;36277;32.852;-116.998;2023-05-29T08:08:22;99988.34;;;24.62
45701;BMP280;36277;32.852;-116.998;2023-05-29T08:10:48;99993.88;;;24.62
45701;BMP280;36277;32.852;-116.998;2023-05-29T08:13:15;99991.09;;;24.62
45701;BMP280;36277;32.852;-116.998;2023-05-29T08:15:41;99994.69;;;24.62
45701;BMP280;36277;32.852;-116.998;2023-05-29T08:18:07;100002.16;;;24.62
45701;BMP280;36277;32.852;-116.998;2023-05-29T08:20:33;100007.44;;;24.63
45701;BMP280;36277;32.852;-116.998;2023-05-29T08:23:00;100004.91;;;24.62
45701;BMP280;36277;32.852;-116.998;2023-05-29T08:25:26;99997.47;;;24.62
45701;BMP280;36277;32.852;-116.998;2023-05-29T08:27:53;100005.31;;;24.59
45701;BMP280;36277;32.852;-116.998;2023-05-29T08:30:19;100011.22;;;24.56
45701;BMP280;36277;32.852;-116.998;2023-05-29T08:32:45;100010.56;;;24.54
45701;BMP280;36277;32.852;-116.998;2023-05-29T08:35:12;100005.44;;;24.51
45701;BMP280;36277;32.852;-116.998;2023-05-29T08:37:38;100010.69;;;24.46
45701;BMP280;36277;32.852;-116.998;2023-05-29T08:40:05;100007.28;;;24.44
45701;BMP280;36277;32.852;-116.998;2023-05-29T08:42:40;100009.47;;;24.48
45701;BMP280;36277;32.852;-116.998;2023-05-29T08:45:13;100008.19;;;24.51
45701;BMP280;36277;32.852;-116.998;2023-05-29T08:47:41;100000.97;;;24.50
45701;BMP280;36277;32.852;-116.998;2023-05-29T08:50:08;99997.16;;;24.51
45701;BMP280;36277;32.852;-116.998;2023-05-29T08:52:35;99997.81;;;24.53
45701;BMP280;36277;32.852;-116.998;2023-05-29T08:55:04;99990.41;;;24.53
45701;BMP280;36277;32.852;-116.998;2023-05-29T08:57:31;99990.41;;;24.53
45701;BMP280;36277;32.852;-116.998;2023-05-29T08:59:58;99990.19;;;24.55
45701;BMP280;36277;32.852;-116.998;2023-05-29T09:02:25;99985.53;;;24.55
45701;BMP280;36277;32.852;-116.998;2023-05-29T09:04:52;99988.97;;;24.57
45701;BMP280;36277;32.852;-116.998;2023-05-29T09:07:20;99989.78;;;24.58
45701;BMP280;36277;32.852;-116.998;2023-05-29T09:09:47;99988.09;;;24.57
45701;BMP280;36277;32.852;-116.998;2023-05-29T09:12:16;99985.78;;;24.60
45701;BMP280;36277;32.852;-116.998;2023-05-29T09:14:44;99993.22;;;24.60
45701;BMP280;36277;32.852;-116.998;2023-05-29T09:17:12;99992.16;;;24.61
45701;BMP280;36277;32.852;-116.998;2023-05-29T09:19:39;99990.66;;;24.58
45701;BMP280;36277;32.852;-116.998;2023-05-29T09:22:11;99988.75;;;24.59
45701;BMP280;36277;32.852;-116.998;2023-05-29T09:24:41;99991.50;;;24.59
45701;BMP280;36277;32.852;-116.998;2023-05-29T09:27:09;99984.94;;;24.60
45701;BMP280;36277;32.852;-116.998;2023-05-29T09:29:43;99981.13;;;24.61
45701;BMP280;36277;32.852;-116.998;2023-05-29T09:32:15;99986.63;;;24.61
45701;BMP280;36277;32.852;-116.998;2023-05-29T09:34:46;99984.94;;;24.60
45701;BMP280;36277;32.852;-116.998;2023-05-29T09:37:12;99981.13;;;24.61
45701;BMP280;36277;32.852;-116.998;2023-05-29T09:42:13;99979.84;;;24.63
45701;BMP280;36277;32.852;-116.998;2023-05-29T09:44:44;99983.66;;;24.62
45701;BMP280;36277;32.852;-116.998;2023-05-29T09:47:18;99985.38;;;24.63
45701;BMP280;36277;32.852;-116.998;2023-05-29T09:49:45;99985.78;;;24.60
45701;BMP280;36277;32.852;-116.998;2023-05-29T09:52:15;99981.13;;;24.61
45701;BMP280;36277;32.852;-116.998;2023-05-29T09:54:46;99989.41;;;24.61
45701;BMP280;36277;32.852;-116.998;2023-05-29T09:57:17;99987.28;;;24.63
45701;BMP280;36277;32.852;-116.998;2023-05-29T09:59:46;99998.34;;;24.63
45701;BMP280;36277;32.852;-116.998;2023-05-29T10:02:19;99994.91;;;24.61
45701;BMP280;36277;32.852;-116.998;2023-05-29T10:04:45;100002.16;;;24.62
45701;BMP280;36277;32.852;-116.998;2023-05-29T10:09:44;99996.41;;;24.63
45701;BMP280;36277;32.852;-116.998;2023-05-29T10:12:13;99997.47;;;24.62
45701;BMP280;36277;32.852;-116.998;2023-05-29T10:14:45;100001.09;;;24.63
45701;BMP280;36277;32.852;-116.998;2023-05-29T10:17:15;100002.16;;;24.62
45701;BMP280;36277;32.852;-116.998;2023-05-29T10:19:45;100002.97;;;24.62
45701;BMP280;36277;32.852;-116.998;2023-05-29T10:22:14;100004.91;;;24.62
45701;BMP280;36277;32.852;-116.998;2023-05-29T10:24:42;100002.31;;;24.60
45701;BMP280;36277;32.852;-116.998;2023-05-29T10:27:10;99999.38;;;24.62
45701;BMP280;36277;32.852;-116.998;2023-05-29T10:30:12;99997.28;;;24.64
45701;BMP280;36277;32.852;-116.998;2023-05-29T10:33:12;100002.53;;;24.59
45701;BMP280;36277;32.852;-116.998;2023-05-29T10:35:53;100008.06;;;24.59
45701;BMP280;36277;32.852;-116.998;2023-05-29T10:38:19;100021.84;;;24.59
45701;BMP280;36277;32.852;-116.998;2023-05-29T10:40:47;100011.66;;;24.59
45701;BMP280;36277;32.852;-116.998;2023-05-29T10:43:42;100009.97;;;24.58
45701;BMP280;36277;32.852;-116.998;2023-05-29T10:46:10;100003.59;;;24.58
45701;BMP280;36277;32.852;-116.998;2023-05-29T10:48:37;100005.31;;;24.59
45701;BMP280;36277;32.852;-116.998;2023-05-29T10:51:05;100006.63;;;24.63
45701;BMP280;36277;32.852;-116.998;2023-05-29T10:53:35;100012.53;;;24.60
45701;BMP280;36277;32.852;-116.998;2023-05-29T10:56:08;100015.28;;;24.60
45701;BMP280;36277;32.852;-116.998;2023-05-29T10:58:36;100016.34;;;24.59
45701;BMP280;36277;32.852;-116.998;2023-05-29T11:01:03;100014.41;;;24.59
45701;BMP280;36277;32.852;-116.998;2023-05-29T11:03:32;100004.91;;;24.62
45701;BMP280;36277;32.852;-116.998;2023-05-29T11:06:03;100014.91;;;24.63
45701;BMP280;36277;32.852;-116.998;2023-05-29T11:08:44;100004.91;;;24.62
45701;BMP280;36277;32.852;-116.998;2023-05-29T11:11:14;100006.34;;;24.58
45701;BMP280;36277;32.852;-116.998;2023-05-29T11:13:41;100018.44;;;24.57
45701;BMP280;36277;32.852;-116.998;2023-05-29T11:18:56;100010.16;;;24.57
45701;BMP280;36277;32.852;-116.998;2023-05-29T11:24:07;100012.28;;;24.55
45701;BMP280;36277;32.852;-116.998;2023-05-29T11:26:35;100011.22;;;24.56
45701;BMP280;36277;32.852;-116.998;2023-05-29T11:29:06;100007.22;;;24.58
45701;BMP280;36277;32.852;-116.998;2023-05-29T11:31:37;100006.56;;;24.56
45701;BMP280;36277;32.852;-116.998;2023-05-29T11:34:04;100008.47;;;24.56
45701;BMP280;36277;32.852;-116.998;2023-05-29T11:36:32;100003.59;;;24.58
45701;BMP280;36277;32.852;-116.998;2023-05-29T11:39:00;100004.66;;;24.57
45701;BMP280;36277;32.852;-116.998;2023-05-29T11:41:27;100000.00;;;24.57
45701;BMP280;36277;32.852;-116.998;2023-05-29T11:44:01;99995.97;;;24.60
45701;BMP280;36277;32.852;-116.998;2023-05-29T11:46:28;99994.66;;;24.56
45701;BMP280;36277;32.852;-116.998;2023-05-29T11:49:01;100004.00;;;24.55
45701;BMP280;36277;32.852;-116.998;2023-05-29T11:51:28;100005.69;;;24.56
45701;BMP280;36277;32.852;-116.998;2023-05-29T11:53:54;100008.47;;;24.56
45701;BMP280;36277;32.852;-116.998;2023-05-29T11:56:30;100007.41;;;24.57
45701;BMP280;36277;32.852;-116.998;2023-05-29T11:58:59;100001.88;;;24.57
45701;BMP280;36277;32.852;-116.998;2023-05-29T12:01:26;100001.88;;;24.57
45701;BMP280;36277;32.852;-116.998;2023-05-29T12:03:53;99998.47;;;24.55
45701;BMP280;36277;32.852;-116.998;2023-05-29T12:06:35;99997.25;;;24.57
45701;BMP280;36277;32.852;-116.998;2023-05-29T12:09:04;99997.81;;;24.53
45701;BMP280;36277;32.852;-116.998;2023-05-29T12:11:31;100002.09;;;24.55
45701;BMP280;36277;32.852;-116.998;2023-05-29T12:14:00;100003.16;;;24.54
45701;BMP280;36277;32.852;-116.998;2023-05-29T12:16:27;100005.69;;;24.56
45701;BMP280;36277;32.852;-116.998;2023-05-29T12:18:56;100004.00;;;24.55
45701;BMP280;36277;32.852;-116.998;2023-05-29T12:21:23;100005.69;;;24.56
45701;BMP280;36277;32.852;-116.998;2023-05-29T12:23:54;100000.84;;;24.58
45701;BMP280;36277;32.852;-116.998;2023-05-29T12:26:24;100003.59;;;24.58
45701;BMP280;36277;32.852;-116.998;2023-05-29T12:28:54;100000.19;;;24.56
45701;BMP280;36277;32.852;-116.998;2023-05-29T12:31:27;99994.47;;;24.57
45701;BMP280;36277;32.852;-116.998;2023-05-29T12:34:10;99994.66;;;24.56
45701;BMP280;36277;32.852;-116.998;2023-05-29T12:36:40;99996.59;;;24.55
45701;BMP280;36277;32.852;-116.998;2023-05-29T12:39:07;100000.19;;;24.56
45701;BMP280;36277;32.852;-116.998;2023-05-29T12:41:38;100002.94;;;24.56
45701;BMP280;36277;32.852;-116.998;2023-05-29T12:44:06;99999.34;;;24.55
45701;BMP280;36277;32.852;-116.998;2023-05-29T12:46:40;100004.66;;;24.57
45701;BMP280;36277;32.852;-116.998;2023-05-29T12:49:16;100010.16;;;24.57
45701;BMP280;36277;32.852;-116.998;2023-05-29T12:51:44;100006.97;;;24.53
45701;BMP280;36277;32.852;-116.998;2023-05-29T12:54:12;100011.44;;;24.54
45701;BMP280;36277;32.852;-116.998;2023-05-29T12:56:39;100010.56;;;24.54
45701;BMP280;36277;32.852;-116.998;2023-05-29T12:59:09;100016.72;;;24.56
45701;BMP280;36277;32.852;-116.998;2023-05-29T13:01:37;100010.56;;;24.54
45701;BMP280;36277;32.852;-116.998;2023-05-29T13:04:07;100017.78;;;24.55
45701;BMP280;36277;32.852;-116.998;2023-05-29T13:06:37;100017.38;;;24.58
45701;BMP280;36277;32.852;-116.998;2023-05-29T13:09:04;100003.16;;;24.54
45701;BMP280;36277;32.852;-116.998;2023-05-29T13:11:34;100007.81;;;24.54
45701;BMP280;36277;32.852;-116.998;2023-05-29T13:14:00;100012.41;;;24.47
45701;BMP280;36277;32.852;-116.998;2023-05-29T13:16:26;100013.19;;;24.41
45701;BMP280;36277;32.852;-116.998;2023-05-29T13:18:53;100021.19;;;24.36
45701;BMP280;36277;32.852;-116.998;2023-05-29T13:21:19;100013.97;;;24.35
45701;BMP280;36277;32.852;-116.998;2023-05-29T13:23:45;100015.63;;;24.29
45701;BMP280;36277;32.852;-116.998;2023-05-29T13:26:12;100012.00;;;24.29
45701;BMP280;36277;32.852;-116.998;2023-05-29T13:28:38;100018.00;;;24.32
45701;BMP280;36277;32.852;-116.998;2023-05-29T13:31:04;100015.25;;;24.32
45701;BMP280;36277;32.852;-116.998;2023-05-29T13:33:30;100024.13;;;24.34
45701;BMP280;36277;32.852;-116.998;2023-05-29T13:35:57;100017.56;;;24.35
45701;BMP280;36277;32.852;-116.998;2023-05-29T13:38:23;100022.03;;;24.36
45701;BMP280;36277;32.852;-116.998;2023-05-29T13:40:49;100026.31;;;24.39
45701;BMP280;36277;32.852;-116.998;2023-05-29T13:43:15;100025.44;;;24.38
45701;BMP280;36277;32.852;-116.998;2023-05-29T13:45:41;100034.59;;;24.39
45701;BMP280;36277;32.852;-116.998;2023-05-29T13:48:08;100030.78;;;24.40